Pagrindinis puslapis
METAR-TAF:

METAR-TAF

Oro uostai :

Marianhamina, Suomija

platuma: 60-07N, ilguma: 019-54E, Aukštis: 6 m

Dabartinis oras

Ataskaita buvo paskelbta 23 minutes, ne 12:20 UTC
Vėjas 6 kt iš Pietų/Pietvakarių, svyruoja nuo Pietų ir Vakarų/Pietvakarių
Temperatūra 13°C
Drėgmė 44%
Slėgis 1028 hPa
Matomumas 10 km arba daugiau
nėra debesų žemiau 1500 m ir nėra kamuolinių lietaus debesų

METAR: EFMA 191220Z AUTO 20006KT 180V240 CAVOK 13/01 Q1028

Laikas: 15:43 (12:43 UTC)

Prognozė

Ataskaita buvo paskelbta 1 valandą ir 20 minutes, ne 11:23 UTC
Prognozė galioja nuo 19 metu 12 UTC su 19 metu 21 UTC
Vėjas 8 kt iš Rytų/Pietryčių
Matomumas 10 km arba daugiau
nėra debesų žemiau 1500 m ir nėra kamuolinių lietaus debesų

TAF: EFMA 191123Z 1912/1921 11008KT CAVOK

Orai ataskaitas ir orų prognozės (METAR, TAF).

turimą stotys yra geltonos ir raudonos taškus žemėlapyje.

Perkelti pele per norėdami pamatyti stoties vardą.

Tada spustelėkite, norėdami matyti oro stebėjimo ir prognozės.

Norėdami pakeisti žemėlapį: spustelėkite ant žalios mygtukų su juodo kryžiaus žemyn,; žalią mygtuką su brūkšneliu, jei norite nutolinti; arba žalių rodyklių gretimoms žemėlapius.


METAR-TAF: